Time;durP1;ratioP1;P1;durP2;ratioP2;P2;SDS_P1;SDS_P2;PMS_P1;PMS_P2;Temp;Humidity;BMP_temperature;BMP_pressure;BME280_temperature;BME280_humidity;BME280_pressure;Samples;Min_cycle;Max_cycle;Signal;HPM_P1;HPM_P2
2023/01/16 00:00:22;;;;;;;14.40;3.45;;;4.00;99.90;;;;;;5076305;28;20370;-72
2023/01/16 00:02:48;;;;;;;18.75;3.65;;;4.00;99.90;;;;;;5076369;28;20051;-72
2023/01/16 00:05:13;;;;;;;16.35;3.53;;;4.00;99.90;;;;;;5075602;28;20475;-72
2023/01/16 00:07:39;;;;;;;19.23;4.82;;;4.00;99.90;;;;;;5074229;28;20048;-73
2023/01/16 00:10:05;;;;;;;20.40;3.55;;;4.00;99.90;;;;;;5057965;28;20361;-73
2023/01/16 00:12:31;;;;;;;17.40;3.70;;;4.00;99.90;;;;;;5057725;28;20460;-73
2023/01/16 00:14:57;;;;;;;17.17;3.38;;;4.10;99.90;;;;;;5074066;28;20333;-73
2023/01/16 00:17:22;;;;;;;13.20;4.00;;;4.10;99.90;;;;;;5074053;28;20144;-72
2023/01/16 00:19:48;;;;;;;14.65;3.38;;;4.20;99.90;;;;;;5075301;28;20106;-72
2023/01/16 00:22:14;;;;;;;18.83;3.80;;;4.20;99.90;;;;;;5075025;28;20074;-72
2023/01/16 00:24:40;;;;;;;15.10;3.60;;;4.20;99.90;;;;;;5074006;28;20048;-73
2023/01/16 00:27:05;;;;;;;13.40;3.33;;;4.20;99.90;;;;;;5075449;28;20041;-71
2023/01/16 00:29:31;;;;;;;10.60;3.10;;;4.20;99.90;;;;;;5057375;28;20044;-71
2023/01/16 00:31:57;;;;;;;13.30;3.13;;;4.20;99.90;;;;;;5073733;28;20051;-72
2023/01/16 00:34:23;;;;;;;17.40;3.70;;;4.20;99.90;;;;;;5075018;28;20087;-71
2023/01/16 00:36:48;;;;;;;12.90;3.28;;;4.20;99.90;;;;;;5057231;28;20044;-71
2023/01/16 00:39:20;;;;;;;22.08;3.42;;;4.10;99.90;;;;;;5074686;28;20076;-72
2023/01/16 00:41:46;;;;;;;13.18;3.30;;;4.00;99.90;;;;;;5074870;28;20080;-72
2023/01/16 00:44:11;;;;;;;13.48;3.63;;;3.90;99.90;;;;;;5073800;28;20044;-72
2023/01/16 00:46:37;;;;;;;12.45;2.70;;;3.90;99.90;;;;;;5074214;28;20141;-73
2023/01/16 00:49:03;;;;;;;19.58;3.70;;;3.90;99.90;;;;;;5074685;28;20047;-73
2023/01/16 00:51:28;;;;;;;17.05;3.53;;;3.80;99.90;;;;;;5056322;28;20059;-73
2023/01/16 00:53:54;;;;;;;17.92;2.92;;;3.80;99.90;;;;;;5074822;28;20040;-73
2023/01/16 00:56:20;;;;;;;19.30;3.10;;;3.70;99.90;;;;;;5073356;28;20132;-73
2023/01/16 00:58:46;;;;;;;16.80;3.95;;;3.70;99.90;;;;;;5073303;28;20131;-73
2023/01/16 01:01:11;;;;;;;22.50;3.33;;;3.70;99.90;;;;;;5073247;28;20049;-72
2023/01/16 01:03:37;;;;;;;24.40;3.22;;;3.70;99.90;;;;;;5074164;28;20044;-73
2023/01/16 01:06:11;;;;;;;14.82;3.05;;;3.70;99.90;;;;;;5056548;28;20048;-72
2023/01/16 01:08:37;;;;;;;21.45;3.45;;;3.80;99.90;;;;;;5074346;28;20041;-72
2023/01/16 01:11:10;;;;;;;21.10;2.80;;;3.80;99.90;;;;;;5073126;28;20047;-73
2023/01/16 01:13:37;;;;;;;18.90;4.22;;;3.90;99.90;;;;;;5074352;28;20091;-72
2023/01/16 01:16:03;;;;;;;20.73;3.70;;;3.90;99.90;;;;;;5090093;28;20044;-73
2023/01/16 01:18:29;;;;;;;15.52;3.22;;;4.00;99.90;;;;;;5072930;28;20067;-72
2023/01/16 01:20:55;;;;;;;15.38;3.00;;;4.10;99.90;;;;;;5072740;28;20134;-72
2023/01/16 01:23:20;;;;;;;15.60;3.03;;;4.10;99.90;;;;;;5073169;28;20048;-71
2023/01/16 01:25:46;;;;;;;19.23;3.25;;;4.10;99.90;;;;;;5072736;28;20374;-72
2023/01/16 01:28:12;;;;;;;20.90;3.70;;;4.10;99.90;;;;;;5073057;28;20059;-72
2023/01/16 01:30:38;;;;;;;25.20;3.05;;;4.10;99.90;;;;;;5073215;28;20083;-73
2023/01/16 01:33:04;;;;;;;14.40;2.50;;;4.20;99.90;;;;;;5056119;28;20086;-72
2023/01/16 01:35:30;;;;;;;17.65;3.83;;;4.30;99.90;;;;;;5072682;28;20123;-72
2023/01/16 01:37:55;;;;;;;10.65;2.47;;;4.30;99.90;;;;;;5073957;28;20048;-72
2023/01/16 01:40:21;;;;;;;22.73;2.90;;;4.30;99.90;;;;;;5055876;28;20604;-73
2023/01/16 01:42:51;;;;;;;20.52;2.97;;;4.30;99.90;;;;;;5073562;28;20052;-73
2023/01/16 01:45:29;;;;;;;28.67;3.83;;;4.40;99.90;;;;;;5073799;28;20032;-72
2023/01/16 01:48:12;;;;;;;15.75;3.10;;;4.40;99.90;;;;;;5072663;28;20095;-74
2023/01/16 01:50:42;;;;;;;13.02;2.60;;;4.40;99.90;;;;;;5107586;28;20129;-73
2023/01/16 01:53:23;;;;;;;16.15;2.88;;;4.40;99.90;;;;;;5056180;28;20587;-73
2023/01/16 01:55:50;;;;;;;16.90;3.03;;;4.40;99.90;;;;;;5073534;28;20055;-71
2023/01/16 01:58:22;;;;;;;13.10;2.53;;;4.40;99.90;;;;;;5072508;28;20063;-73
2023/01/16 02:00:52;;;;;;;13.95;2.75;;;4.50;99.90;;;;;;5073608;28;20044;-72
2023/01/16 02:03:25;;;;;;;11.82;2.60;;;4.50;99.90;;;;;;5055127;28;20092;-74
2023/01/16 02:05:55;;;;;;;12.95;2.50;;;4.50;99.90;;;;;;5072611;28;20045;-74
2023/01/16 02:08:24;;;;;;;15.82;2.40;;;4.50;99.90;;;;;;5074368;28;20372;-73
2023/01/16 02:11:00;;;;;;;10.68;2.75;;;4.50;99.90;;;;;;5073646;28;20408;-74
2023/01/16 02:13:26;;;;;;;16.65;3.33;;;4.50;99.90;;;;;;5072325;28;20040;-73
2023/01/16 02:21:58;;;;;;;11.98;2.65;;;4.50;99.90;;;;;;5074177;28;20062;-73
2023/01/16 02:25:02;;;;;;;14.55;2.80;;;4.50;99.90;;;;;;5106129;28;20055;-73
2023/01/16 02:27:42;;;;;;;11.00;2.78;;;4.50;99.90;;;;;;5072157;28;20045;-73
2023/01/16 02:30:13;;;;;;;14.18;3.15;;;4.50;99.90;;;;;;5074144;28;20403;-74
2023/01/16 02:32:56;;;;;;;17.17;3.40;;;4.50;99.90;;;;;;5072627;28;20396;-73
2023/01/16 02:35:25;;;;;;;18.88;3.42;;;4.40;99.90;;;;;;5055556;28;20076;-74
2023/01/16 02:37:55;;;;;;;18.02;3.80;;;4.40;99.90;;;;;;5055756;28;20040;-73
2023/01/16 02:40:31;;;;;;;16.23;3.67;;;4.40;99.90;;;;;;5072386;28;20052;-73
2023/01/16 02:43:16;;;;;;;15.55;3.10;;;4.40;99.90;;;;;;5073576;28;20440;-73
2023/01/16 02:46:01;;;;;;;18.80;3.60;;;4.40;99.90;;;;;;5072819;28;20393;-73
2023/01/16 02:48:36;;;;;;;12.00;3.78;;;4.30;99.90;;;;;;5073920;28;20048;-73
2023/01/16 02:51:14;;;;;;;12.07;3.90;;;4.20;99.90;;;;;;5072046;28;20045;-74
2023/01/16 02:53:54;;;;;;;17.23;3.83;;;4.00;99.90;;;;;;5073095;28;20056;-72
2023/01/16 02:56:36;;;;;;;15.55;4.28;;;4.10;99.90;;;;;;5073569;28;20044;-73
2023/01/16 02:59:02;;;;;;;14.75;3.90;;;4.00;99.90;;;;;;5073170;28;20071;-73
2023/01/16 03:01:28;;;;;;;23.95;4.93;;;4.00;99.90;;;;;;5072189;28;20048;-72
2023/01/16 03:03:53;;;;;;;18.27;4.45;;;4.10;99.90;;;;;;5072456;28;20048;-74
2023/01/16 03:06:34;;;;;;;20.73;4.93;;;4.10;99.90;;;;;;5073073;28;20044;-73
2023/01/16 03:09:29;;;;;;;16.95;4.60;;;4.20;99.90;;;;;;5073537;28;20056;-74
2023/01/16 03:12:17;;;;;;;25.35;6.35;;;4.20;99.90;;;;;;5072983;28;20048;-73
2023/01/16 03:14:51;;;;;;;;;;;4.30;99.90;;;;;;5077085;28;20055;-73
2023/01/16 03:17:42;;;;;;;17.02;5.18;;;4.30;99.90;;;;;;5075979;28;19920;-73
2023/01/16 03:20:14;;;;;;;21.83;5.30;;;4.30;99.90;;;;;;5059221;28;20421;-73
2023/01/16 03:22:43;;;;;;;16.55;5.45;;;4.30;99.90;;;;;;5076368;28;20090;-73
2023/01/16 03:25:15;;;;;;;22.30;5.38;;;4.20;99.90;;;;;;5075526;28;20137;-74
2023/01/16 03:28:18;;;;;;;24.05;5.93;;;4.20;99.90;;;;;;5059102;28;20045;-74
2023/01/16 03:30:59;;;;;;;19.60;5.30;;;4.20;99.90;;;;;;5076329;28;20048;-73
2023/01/16 03:33:45;;;;;;;17.45;5.38;;;4.10;99.90;;;;;;5076786;28;20052;-73
2023/01/16 03:36:20;;;;;;;18.00;6.22;;;4.10;99.90;;;;;;5076577;28;20048;-73
2023/01/16 03:38:48;;;;;;;21.40;6.13;;;4.10;99.90;;;;;;5059332;28;20056;-73
2023/01/16 03:41:20;;;;;;;20.83;6.22;;;4.10;99.90;;;;;;5075399;28;20053;-74
2023/01/16 03:43:50;;;;;;;21.20;6.45;;;4.20;99.90;;;;;;5075430;28;20052;-74
2023/01/16 03:46:30;;;;;;;19.23;6.13;;;4.20;99.90;;;;;;5075031;28;20127;-73
2023/01/16 03:49:04;;;;;;;25.48;7.53;;;4.20;99.90;;;;;;5076799;28;20083;-74
2023/01/16 03:51:35;;;;;;;20.10;6.68;;;4.20;99.90;;;;;;5075877;28;20127;-74
2023/01/16 03:54:24;;;;;;;25.02;7.43;;;4.30;99.90;;;;;;5076162;28;20109;-73
2023/01/16 03:57:07;;;;;;;24.80;7.75;;;4.30;99.90;;;;;;5059468;28;20465;-74
2023/01/16 03:59:34;;;;;;;21.88;6.65;;;4.30;99.90;;;;;;5076207;28;20129;-71
2023/01/16 04:02:12;;;;;;;27.65;8.25;;;4.30;99.90;;;;;;5075186;28;20048;-73
2023/01/16 04:04:49;;;;;;;32.70;9.10;;;4.30;99.90;;;;;;5058398;28;20056;-73
2023/01/16 04:07:51;;;;;;;31.52;9.32;;;4.30;99.90;;;;;;5076497;28;20393;-73
2023/01/16 04:10:21;;;;;;;37.45;10.07;;;4.40;99.90;;;;;;5069213;28;20056;-72
2023/01/16 04:13:06;;;;;;;42.15;10.75;;;4.40;99.90;;;;;;5075836;28;20389;-73
2023/01/16 04:15:35;;;;;;;39.53;11.38;;;4.40;99.90;;;;;;5076370;28;20080;-73
2023/01/16 04:18:01;;;;;;;43.40;11.80;;;4.30;99.90;;;;;;5075589;28;20107;-72
2023/01/16 04:20:29;;;;;;;53.93;13.63;;;4.30;99.90;;;;;;5074421;28;20135;-73
2023/01/16 04:22:55;;;;;;;51.15;12.88;;;4.30;99.90;;;;;;5075818;28;20051;-72
2023/01/16 04:25:21;;;;;;;51.10;13.77;;;4.30;99.90;;;;;;5056933;28;20040;-73
2023/01/16 04:27:47;;;;;;;47.33;13.40;;;4.30;99.90;;;;;;5075713;28;20040;-74
2023/01/16 04:30:15;;;;;;;49.00;12.40;;;4.30;99.90;;;;;;5074717;28;20050;-75
2023/01/16 04:32:41;;;;;;;49.63;12.77;;;4.30;99.90;;;;;;5058282;28;20123;-73
2023/01/16 04:35:07;;;;;;;49.83;12.48;;;4.30;99.90;;;;;;5075668;28;20037;-72
2023/01/16 04:37:33;;;;;;;44.40;12.05;;;4.30;99.90;;;;;;5074753;28;20465;-72
2023/01/16 04:39:59;;;;;;;47.38;12.85;;;4.40;99.90;;;;;;5076010;28;20063;-72
2023/01/16 04:42:25;;;;;;;37.63;10.73;;;4.40;99.90;;;;;;5041716;28;20436;-72
2023/01/16 04:44:50;;;;;;;45.13;11.38;;;4.30;99.90;;;;;;5074875;28;20048;-72
2023/01/16 04:47:16;;;;;;;48.60;12.45;;;4.20;99.90;;;;;;5074591;28;20102;-73
2023/01/16 04:49:42;;;;;;;45.67;11.05;;;4.20;99.90;;;;;;5075162;28;20076;-72
2023/01/16 04:52:10;;;;;;;40.35;10.82;;;4.00;99.90;;;;;;5075040;28;20404;-73
2023/01/16 04:54:36;;;;;;;42.20;10.50;;;3.90;99.90;;;;;;5073857;28;20056;-72
2023/01/16 04:57:02;;;;;;;43.58;10.32;;;3.80;99.90;;;;;;5075011;28;20117;-72
2023/01/16 04:59:28;;;;;;;37.20;10.80;;;3.70;99.90;;;;;;5074985;28;20393;-72
2023/01/16 05:01:54;;;;;;;36.28;9.77;;;3.60;99.90;;;;;;5074195;28;20040;-72
2023/01/16 05:04:20;;;;;;;39.47;10.65;;;3.50;99.90;;;;;;5056656;28;20051;-72
2023/01/16 05:06:46;;;;;;;36.30;10.70;;;3.40;99.90;;;;;;5074037;28;20443;-72
2023/01/16 05:09:12;;;;;;;44.08;11.55;;;3.30;99.90;;;;;;5074600;28;20054;-73
2023/01/16 05:11:38;;;;;;;81.13;18.05;;;3.30;99.90;;;;;;5075520;28;20063;-72
2023/01/16 05:14:07;;;;;;;105.47;21.20;;;3.30;99.90;;;;;;5074064;28;20040;-72
2023/01/16 05:16:35;;;;;;;55.30;13.00;;;3.20;99.90;;;;;;5074847;28;20040;-73
2023/01/16 05:19:00;;;;;;;;;;;3.20;99.90;;;;;;5074053;28;20151;-73
2023/01/16 05:21:26;;;;;;;28.60;7.50;;;3.20;99.90;;;;;;5056952;28;19975;-73
2023/01/16 05:23:52;;;;;;;36.17;9.23;;;3.20;99.90;;;;;;5057094;28;20432;-73
2023/01/16 05:26:18;;;;;;;37.15;8.40;;;3.30;99.90;;;;;;5073617;28;20037;-74
2023/01/16 05:28:44;;;;;;;37.47;8.90;;;3.30;99.90;;;;;;5056883;28;20044;-74
2023/01/16 05:31:10;;;;;;;31.00;8.40;;;3.40;99.90;;;;;;5056719;28;20090;-73
2023/01/16 05:33:35;;;;;;;38.30;8.77;;;3.50;99.90;;;;;;5107425;28;20477;-74
2023/01/16 05:36:01;;;;;;;36.05;8.27;;;3.50;99.90;;;;;;5056584;28;20465;-73
2023/01/16 05:38:27;;;;;;;35.08;8.55;;;3.60;99.90;;;;;;5074141;28;20101;-73
2023/01/16 05:40:53;;;;;;;36.13;8.00;;;3.60;99.90;;;;;;5056808;28;20045;-74
2023/01/16 05:43:19;;;;;;;33.28;7.20;;;3.60;99.90;;;;;;5075217;28;20425;-73
2023/01/16 05:45:45;;;;;;;32.50;7.05;;;3.70;99.90;;;;;;5074212;28;20036;-71
2023/01/16 05:48:10;;;;;;;32.75;7.10;;;3.80;99.90;;;;;;5056565;28;20052;-73
2023/01/16 05:50:36;;;;;;;30.25;7.22;;;3.70;99.90;;;;;;5074281;28;20052;-73
2023/01/16 05:53:02;;;;;;;27.40;6.75;;;3.80;99.90;;;;;;5056892;28;20048;-72
2023/01/16 05:55:28;;;;;;;25.90;6.65;;;3.80;99.90;;;;;;5073308;28;20546;-73
2023/01/16 05:57:54;;;;;;;18.48;6.22;;;3.90;99.90;;;;;;5073060;28;20087;-72
2023/01/16 06:00:20;;;;;;;24.10;5.30;;;3.80;99.90;;;;;;5074186;28;20040;-73
2023/01/16 06:02:48;;;;;;;30.67;5.47;;;3.80;99.90;;;;;;5075019;28;20114;-73
2023/01/16 06:05:14;;;;;;;20.60;5.40;;;3.80;99.90;;;;;;5073859;28;20090;-72
2023/01/16 06:07:43;;;;;;;20.27;4.80;;;3.80;99.90;;;;;;5073986;28;20438;-72
2023/01/16 06:10:10;;;;;;;24.25;5.97;;;3.80;99.90;;;;;;5073450;28;20393;-71
2023/01/16 06:12:35;;;;;;;19.95;4.82;;;3.80;99.90;;;;;;5073347;28;20101;-73
2023/01/16 06:15:01;;;;;;;16.40;5.15;;;3.90;99.90;;;;;;5072894;28;20127;-73
2023/01/16 06:17:27;;;;;;;20.80;5.20;;;3.90;99.90;;;;;;5073993;28;20060;-72
2023/01/16 06:19:53;;;;;;;27.52;5.57;;;4.00;99.90;;;;;;5073895;28;20440;-73
2023/01/16 06:22:20;;;;;;;21.10;4.88;;;4.00;99.90;;;;;;5090515;28;20370;-72
2023/01/16 06:24:46;;;;;;;17.42;4.68;;;4.00;99.90;;;;;;5041095;28;20048;-73
2023/01/16 06:27:11;;;;;;;21.08;4.88;;;4.00;99.90;;;;;;5073067;28;20052;-71
2023/01/16 06:29:38;;;;;;;23.73;5.72;;;3.90;99.90;;;;;;5073033;28;20495;-72
2023/01/16 06:32:04;;;;;;;16.88;4.47;;;3.80;99.90;;;;;;5074466;28;20136;-72
2023/01/16 06:34:30;;;;;;;19.30;4.43;;;3.80;99.90;;;;;;5073778;28;20049;-71
2023/01/16 06:36:56;;;;;;;25.45;5.47;;;3.80;99.90;;;;;;5072787;28;20048;-72
2023/01/16 06:39:22;;;;;;;20.77;5.03;;;3.80;99.90;;;;;;5073856;28;20040;-71
2023/01/16 06:41:48;;;;;;;23.20;5.00;;;3.80;99.90;;;;;;5074892;28;20059;-72
2023/01/16 06:44:13;;;;;;;14.23;2.67;;;3.70;99.90;;;;;;5057134;28;20044;-72
2023/01/16 06:46:39;;;;;;;23.48;4.95;;;3.80;99.90;;;;;;5073538;28;20045;-73
2023/01/16 06:49:05;;;;;;;25.38;4.57;;;3.70;99.90;;;;;;5077093;28;20090;-71
2023/01/16 06:51:30;;;;;;;24.42;4.38;;;3.70;99.90;;;;;;5078565;28;20170;-71
2023/01/16 06:53:56;;;;;;;16.70;4.50;;;3.80;99.90;;;;;;5077697;28;20044;-72
2023/01/16 06:56:22;;;;;;;16.83;3.20;;;3.70;99.90;;;;;;5076465;28;20049;-71
2023/01/16 06:58:47;;;;;;;22.30;3.40;;;3.70;99.90;;;;;;5075925;28;20047;-71
2023/01/16 07:01:13;;;;;;;21.00;4.50;;;3.70;99.90;;;;;;5075759;28;20082;-72
2023/01/16 07:03:39;;;;;;;21.67;3.67;;;3.70;99.90;;;;;;5076994;28;20052;-71
2023/01/16 07:06:05;;;;;;;15.57;4.07;;;3.60;99.90;;;;;;5076340;28;20091;-72
2023/01/16 07:08:31;;;;;;;20.48;4.30;;;3.70;99.90;;;;;;5077794;28;20044;-72
2023/01/16 07:11:00;;;;;;;9.70;2.40;;;3.70;99.90;;;;;;5059937;28;20052;-73
2023/01/16 07:13:29;;;;;;;12.45;2.95;;;3.70;99.90;;;;;;5077308;28;20116;-72
2023/01/16 07:24:26;;;;;;;24.75;4.35;;;3.80;99.90;;;;;;5076190;28;20050;-72
2023/01/16 07:26:58;;;;;;;21.83;4.22;;;3.80;99.90;;;;;;5076204;28;20551;-72
2023/01/16 07:29:25;;;;;;;18.55;6.13;;;3.80;99.90;;;;;;5076372;28;20044;-72
2023/01/16 07:31:51;;;;;;;86.22;24.17;;;3.70;99.90;;;;;;5059058;28;20052;-72
2023/01/16 07:34:17;;;;;;;68.35;22.00;;;3.80;99.90;;;;;;5076299;28;20044;-71
2023/01/16 07:36:43;;;;;;;60.15;15.45;;;3.90;99.90;;;;;;5058413;28;20056;-71
2023/01/16 07:39:09;;;;;;;63.60;22.83;;;3.80;99.90;;;;;;5058734;28;20415;-71
2023/01/16 07:41:34;;;;;;;61.08;23.15;;;3.80;99.90;;;;;;5075010;28;20079;-72
2023/01/16 07:44:00;;;;;;;59.17;20.00;;;3.80;99.90;;;;;;5076167;28;20552;-72
2023/01/16 07:46:26;;;;;;;34.13;11.40;;;3.80;99.90;;;;;;5074730;28;20079;-73
2023/01/16 07:48:53;;;;;;;46.88;18.48;;;3.80;99.90;;;;;;5075889;28;20167;-73
2023/01/16 07:51:19;;;;;;;38.97;14.60;;;3.80;99.90;;;;;;5075913;28;20496;-72
2023/01/16 07:53:44;;;;;;;23.52;6.05;;;3.90;99.90;;;;;;5075962;28;20131;-74
2023/01/16 07:56:10;;;;;;;22.10;8.23;;;4.00;99.90;;;;;;5058578;28;20094;-73
2023/01/16 07:58:37;;;;;;;29.15;10.50;;;4.10;99.90;;;;;;5075177;28;20151;-73
2023/01/16 08:01:05;;;;;;;34.00;10.70;;;4.00;99.90;;;;;;5074565;28;20124;-74
2023/01/16 08:03:31;;;;;;;20.48;6.85;;;4.10;99.90;;;;;;5059093;28;20048;-73
2023/01/16 08:05:57;;;;;;;24.45;6.93;;;4.10;99.90;;;;;;5074785;28;20040;-73
2023/01/16 08:08:25;;;;;;;65.45;25.10;;;4.20;99.90;;;;;;5074494;28;20056;-73
2023/01/16 08:10:59;;;;;;;26.17;9.32;;;4.20;99.90;;;;;;5075626;28;20041;-73
2023/01/16 08:13:26;;;;;;;25.75;9.70;;;4.30;99.90;;;;;;5076303;28;20131;-73
2023/01/16 08:15:52;;;;;;;27.25;8.70;;;4.30;99.90;;;;;;5075811;28;20132;-73
2023/01/16 08:18:19;;;;;;;18.42;5.28;;;4.30;99.90;;;;;;5057974;28;20095;-75
2023/01/16 08:20:46;;;;;;;15.02;5.05;;;4.30;99.90;;;;;;5057930;28;20052;-72
2023/01/16 08:23:12;;;;;;;23.95;7.22;;;4.40;99.90;;;;;;5074228;28;20036;-73
2023/01/16 08:25:38;;;;;;;15.73;4.85;;;4.30;99.90;;;;;;5074280;28;20055;-73
2023/01/16 08:28:05;;;;;;;22.60;6.90;;;4.40;99.90;;;;;;5074570;28;20049;-72
2023/01/16 08:30:30;;;;;;;18.35;5.97;;;4.30;99.90;;;;;;5075818;28;20072;-72
2023/01/16 08:33:00;;;;;;;12.55;4.88;;;4.40;99.90;;;;;;5076313;28;20479;-72
2023/01/16 08:35:26;;;;;;;19.77;6.03;;;4.40;99.90;;;;;;5057867;28;20063;-72
2023/01/16 08:37:52;;;;;;;15.23;4.85;;;4.40;99.90;;;;;;5074053;28;20101;-71
2023/01/16 08:40:18;;;;;;;18.48;3.90;;;4.40;99.90;;;;;;5074454;28;20377;-71
2023/01/16 08:51:23;;;;;;;13.65;4.03;;;4.50;99.90;;;;;;5075332;28;20049;-72
2023/01/16 08:53:50;;;;;;;10.65;2.92;;;4.50;99.90;;;;;;5092416;28;20102;-71
2023/01/16 08:56:16;;;;;;;13.60;3.85;;;4.50;99.90;;;;;;5073540;28;20504;-70
2023/01/16 08:58:41;;;;;;;10.43;2.58;;;4.50;99.90;;;;;;5074560;28;20040;-72
2023/01/16 09:01:07;;;;;;;19.30;4.28;;;4.50;99.90;;;;;;5074611;28;20102;-71
2023/01/16 09:03:36;;;;;;;28.90;13.40;;;4.50;99.90;;;;;;5074784;28;20401;-70
2023/01/16 09:06:02;;;;;;;21.95;9.15;;;4.50;99.90;;;;;;5074137;28;20529;-71
2023/01/16 09:08:27;;;;;;;18.85;8.38;;;4.60;99.90;;;;;;5057107;28;20087;-71
2023/01/16 09:13:50;;;;;;;19.23;4.43;;;4.50;99.90;;;;;;5073667;28;20102;-71
2023/01/16 09:16:24;;;;;;;14.73;5.18;;;4.50;99.90;;;;;;5059037;28;20079;-71
2023/01/16 09:18:51;;;;;;;16.85;3.78;;;4.50;99.90;;;;;;5073023;28;20083;-71
2023/01/16 09:21:19;;;;;;;11.70;4.07;;;4.50;99.90;;;;;;5073107;28;20386;-71
2023/01/16 09:23:45;;;;;;;17.13;4.45;;;4.50;99.90;;;;;;5073753;28;20048;-71
2023/01/16 09:26:11;;;;;;;11.43;3.33;;;4.50;99.90;;;;;;5073369;28;20097;-69
2023/01/16 09:28:37;;;;;;;9.48;2.35;;;4.50;99.90;;;;;;5073359;28;20511;-70
2023/01/16 09:31:03;;;;;;;12.43;3.25;;;4.60;99.90;;;;;;5072672;28;20055;-70
2023/01/16 09:33:29;;;;;;;16.60;3.63;;;4.60;99.90;;;;;;5056251;28;20048;-70
2023/01/16 09:35:55;;;;;;;7.10;1.27;;;4.60;99.90;;;;;;5072700;28;20036;-71
2023/01/16 09:38:21;;;;;;;9.73;1.27;;;4.60;99.90;;;;;;5073996;28;20497;-71
2023/01/16 09:40:51;;;;;;;11.30;2.63;;;4.70;99.90;;;;;;5073339;28;20473;-71
2023/01/16 09:43:40;;;;;;;12.18;2.78;;;4.60;99.90;;;;;;5056079;28;20103;-70
2023/01/16 09:46:18;;;;;;;10.73;2.67;;;4.60;99.90;;;;;;5074033;28;20487;-69
2023/01/16 09:48:47;;;;;;;8.07;2.05;;;4.70;99.90;;;;;;5056115;28;20055;-71
2023/01/16 09:51:28;;;;;;;13.70;2.42;;;4.70;99.90;;;;;;5073850;28;20500;-70
2023/01/16 09:59:53;;;;;;;10.25;2.47;;;4.60;99.90;;;;;;5073610;28;20060;-69
2023/01/16 10:02:32;;;;;;;8.15;1.85;;;4.70;99.90;;;;;;5055732;28;20488;-70
2023/01/16 10:05:00;;;;;;;8.30;1.90;;;4.70;99.90;;;;;;5073197;28;20439;-69
2023/01/16 10:07:32;;;;;;;7.75;2.28;;;4.70;99.90;;;;;;5073785;28;20063;-70
2023/01/16 10:10:10;;;;;;;5.72;1.92;;;4.60;99.90;;;;;;5072754;28;20045;-70
2023/01/16 10:12:39;;;;;;;9.63;2.20;;;4.70;99.90;;;;;;5074314;28;20055;-70
2023/01/16 10:15:36;;;;;;;7.25;1.52;;;4.70;99.90;;;;;;5072255;28;20062;-70
2023/01/16 10:18:31;;;;;;;14.35;2.20;;;4.60;99.90;;;;;;5073471;28;20105;-69
2023/01/16 10:21:16;;;;;;;6.63;1.50;;;4.60;99.90;;;;;;5073349;28;20052;-69
2023/01/16 10:24:01;;;;;;;4.50;1.20;;;4.60;99.90;;;;;;5072452;28;20044;-71
2023/01/16 10:26:49;;;;;;;9.43;1.95;;;4.60;99.90;;;;;;5073698;28;20044;-69
2023/01/16 10:29:21;;;;;;;9.05;2.10;;;4.50;99.90;;;;;;5055498;28;20088;-70
2023/01/16 10:31:55;;;;;;;5.72;1.67;;;4.40;99.90;;;;;;5073290;28;20047;-69
2023/01/16 10:34:33;;;;;;;8.07;1.92;;;4.50;99.90;;;;;;5072136;28;20067;-70
2023/01/16 10:37:00;;;;;;;8.70;1.33;;;4.40;99.90;;;;;;5072122;28;20048;-69
2023/01/16 10:39:33;;;;;;;9.85;2.17;;;4.40;99.90;;;;;;5071878;28;20427;-69
2023/01/16 10:50:32;;;;;;;7.95;3.05;;;4.50;99.90;;;;;;5073066;28;20048;-70
2023/01/16 10:52:58;;;;;;;9.85;2.30;;;4.30;99.90;;;;;;5072068;28;20059;-69
2023/01/16 10:55:24;;;;;;;15.95;2.45;;;4.40;99.90;;;;;;5071901;28;20432;-69
2023/01/16 10:57:56;;;;;;;9.07;3.10;;;4.40;99.90;;;;;;5071840;28;20067;-69
2023/01/16 11:00:30;;;;;;;8.07;1.67;;;4.40;99.90;;;;;;5055070;28;20558;-69
2023/01/16 11:03:07;;;;;;;5.82;1.85;;;4.50;99.90;;;;;;5073177;28;20044;-71
2023/01/16 11:05:36;;;;;;;14.40;3.97;;;4.50;99.90;;;;;;5072882;28;20076;-70
2023/01/16 11:08:17;;;;;;;10.60;4.47;;;4.40;99.90;;;;;;5072569;28;20067;-69
2023/01/16 11:10:49;;;;;;;7.95;2.47;;;4.50;99.90;;;;;;5071606;28;20045;-70
2023/01/16 11:18:58;;;;;;;10.82;4.05;;;4.60;99.90;;;;;;5073762;28;20056;-70
2023/01/16 11:21:32;;;;;;;12.60;3.88;;;4.60;99.90;;;;;;5071929;28;20048;-70
2023/01/16 11:24:00;;;;;;;12.85;2.63;;;4.60;99.90;;;;;;5072401;28;20044;-72
2023/01/16 11:26:27;;;;;;;6.47;2.00;;;4.50;99.90;;;;;;5072453;28;20080;-69
2023/01/16 11:28:55;;;;;;;9.05;2.28;;;4.60;99.90;;;;;;5072395;28;20048;-70
2023/01/16 11:31:26;;;;;;;17.38;4.38;;;4.50;99.90;;;;;;5072510;28;20136;-69
2023/01/16 11:34:04;;;;;;;12.20;3.22;;;4.60;99.90;;;;;;5073428;28;20102;-70
2023/01/16 11:36:35;;;;;;;10.57;3.13;;;4.50;99.90;;;;;;5074790;28;20554;-69
2023/01/16 11:39:02;;;;;;;10.98;3.60;;;4.70;99.90;;;;;;5076077;28;20048;-69
2023/01/16 11:41:37;;;;;;;14.93;3.88;;;4.70;99.90;;;;;;5075000;28;20052;-69
2023/01/16 11:47:00;;;;;;;11.25;2.85;;;4.70;99.90;;;;;;5075890;28;20048;-70
2023/01/16 11:49:47;;;;;;;6.32;1.73;;;4.70;99.90;;;;;;5057946;28;20048;-69
2023/01/16 11:52:29;;;;;;;12.95;3.17;;;4.70;99.90;;;;;;5075551;28;20048;-69
2023/01/16 11:55:04;;;;;;;9.63;2.78;;;4.80;99.90;;;;;;5074585;28;20036;-69
2023/01/16 11:57:29;;;;;;;12.57;2.88;;;4.80;99.90;;;;;;5074889;28;20515;-69
2023/01/16 12:00:01;;;;;;;7.97;2.67;;;4.80;99.90;;;;;;5074896;28;20044;-70
2023/01/16 12:02:45;;;;;;;10.30;2.67;;;4.80;99.90;;;;;;5074891;28;20481;-69
2023/01/16 12:08:36;;;;;;;14.20;3.03;;;4.90;99.90;;;;;;5075098;28;20457;-69
2023/01/16 12:11:41;;;;;;;9.00;2.28;;;5.00;99.90;;;;;;5055582;28;20052;-69
2023/01/16 12:14:20;;;;;;;13.52;2.95;;;5.00;99.90;;;;;;5070173;28;20060;-68
2023/01/16 12:17:30;;;;;;;7.10;2.53;;;5.00;99.90;;;;;;5076307;28;20052;-69
2023/01/16 12:20:33;;;;;;;6.78;1.67;;;5.00;99.90;;;;;;5036569;28;20154;-69
2023/01/16 12:23:12;;;;;;;13.27;2.47;;;5.00;99.90;;;;;;5075345;28;20048;-68
2023/01/16 12:26:06;;;;;;;7.00;2.33;;;5.00;99.90;;;;;;5075200;28;20047;-69
2023/01/16 12:28:43;;;;;;;17.02;3.30;;;5.00;99.90;;;;;;5075197;28;20049;-70
2023/01/16 12:34:20;;;;;;;8.15;1.90;;;5.00;99.90;;;;;;5075046;28;20139;-70
2023/01/16 12:37:12;;;;;;;9.57;2.45;;;5.10;99.90;;;;;;5075366;28;20048;-69
2023/01/16 12:40:04;;;;;;;10.27;3.70;;;5.00;99.90;;;;;;5074869;28;20105;-70
2023/01/16 12:43:23;;;;;;;14.48;3.58;;;5.00;99.90;;;;;;5074640;28;20044;-70
2023/01/16 12:46:01;;;;;;;12.70;2.63;;;5.00;99.90;;;;;;5040076;28;20101;-70
2023/01/16 12:48:27;;;;;;;19.27;3.40;;;5.00;99.90;;;;;;5073644;28;20477;-70
2023/01/16 12:51:17;;;;;;;13.27;5.00;;;5.00;99.90;;;;;;5073803;28;20045;-69
2023/01/16 12:54:07;;;;;;;9.02;3.03;;;5.00;99.90;;;;;;5074880;28;20150;-70
2023/01/16 12:56:57;;;;;;;10.63;2.83;;;5.00;99.90;;;;;;5075342;28;20101;-70
2023/01/16 12:59:43;;;;;;;12.68;3.80;;;5.00;99.90;;;;;;5074822;28;20386;-70
2023/01/16 13:02:12;;;;;;;16.38;4.43;;;5.10;99.90;;;;;;5056826;28;20070;-69
2023/01/16 13:04:42;;;;;;;14.13;3.28;;;5.10;99.90;;;;;;5074221;28;20044;-69
2023/01/16 13:07:14;;;;;;;10.35;3.40;;;5.10;99.90;;;;;;5074331;28;20048;-69
2023/01/16 13:09:43;;;;;;;10.15;3.72;;;5.30;99.90;;;;;;5073328;28;20140;-69
2023/01/16 13:15:22;;;;;;;9.80;2.95;;;5.20;99.90;;;;;;5073968;28;20048;-70
2023/01/16 13:18:00;;;;;;;13.50;3.40;;;5.20;99.90;;;;;;5056220;28;20063;-70
2023/01/16 13:20:26;;;;;;;11.65;3.08;;;5.30;99.90;;;;;;5074452;28;20468;-70
2023/01/16 13:23:01;;;;;;;14.00;3.72;;;5.30;99.90;;;;;;5074100;28;20044;-69
2023/01/16 13:25:39;;;;;;;10.23;2.78;;;5.30;99.90;;;;;;5073718;28;20044;-71
2023/01/16 13:28:32;;;;;;;9.93;2.60;;;5.20;99.90;;;;;;5072835;28;20044;-70
2023/01/16 13:31:04;;;;;;;7.68;2.60;;;5.20;99.90;;;;;;5071690;28;20060;-71
2023/01/16 13:33:34;;;;;;;12.13;3.33;;;5.20;99.90;;;;;;5056184;28;20070;-69
2023/01/16 13:36:47;;;;;;;11.07;3.08;;;5.30;99.90;;;;;;5073865;28;20106;-71
2023/01/16 13:39:46;;;;;;;7.88;2.67;;;5.20;99.90;;;;;;5034721;28;20056;-70
2023/01/16 13:42:15;;;;;;;10.57;2.42;;;5.30;99.90;;;;;;5051394;28;20123;-70
2023/01/16 13:47:35;;;;;;;8.93;2.35;;;5.30;99.90;;;;;;5073682;28;20135;-71
2023/01/16 13:50:16;;;;;;;7.00;2.25;;;5.30;99.90;;;;;;5073248;28;20045;-70
2023/01/16 13:52:43;;;;;;;6.72;2.13;;;5.40;99.90;;;;;;5072208;28;20052;-73
2023/01/16 13:55:22;;;;;;;8.47;2.10;;;5.40;99.90;;;;;;5073606;28;20558;-71
2023/01/16 13:57:48;;;;;;;7.25;1.92;;;5.40;99.90;;;;;;5073274;28;20278;-70
2023/01/16 14:00:19;;;;;;;4.95;1.80;;;5.40;99.90;;;;;;5074091;28;20055;-71
2023/01/16 14:02:59;;;;;;;7.38;1.70;;;5.40;99.90;;;;;;5056660;28;20055;-71
2023/01/16 14:05:44;;;;;;;6.38;1.77;;;5.50;99.90;;;;;;5072264;28;20047;-70
2023/01/16 14:11:58;;;;;;;4.65;1.58;;;5.50;99.90;;;;;;5073410;28;20088;-70
2023/01/16 14:17:53;;;;;;;6.78;1.77;;;5.50;99.90;;;;;;5073197;28;20063;-70